Time;durP1;ratioP1;P1;durP2;ratioP2;P2;SDS_P1;SDS_P2;PMS_P1;PMS_P2;Temp;Humidity;BMP_temperature;BMP_pressure;BME280_temperature;BME280_humidity;BME280_pressure;Samples;Min_cycle;Max_cycle;Signal;HPM_P1;HPM_P2
2022/07/31 00:01:26;;;;;;;4.60;2.00;;;19.60;99.90;;;;;;5074257;28;20674;-57
2022/07/31 00:03:55;;;;;;;2.00;1.90;;;19.50;99.90;;;;;;5097825;28;20560;-56
2022/07/31 00:06:24;;;;;;;1.90;1.80;;;19.50;99.90;;;;;;5054317;28;20319;-57
2022/07/31 00:08:53;;;;;;;2.80;2.00;;;19.40;99.90;;;;;;5072506;28;20238;-56
2022/07/31 00:11:21;;;;;;;1.90;1.80;;;19.40;99.90;;;;;;5072648;28;20200;-56
2022/07/31 00:13:50;;;;;;;3.10;2.00;;;19.40;99.90;;;;;;5073733;28;20283;-56
2022/07/31 00:16:25;;;;;;;3.17;2.00;;;19.40;99.90;;;;;;5073089;28;20249;-56
2022/07/31 00:18:55;;;;;;;2.70;2.03;;;19.40;99.90;;;;;;5073508;28;20199;-56
2022/07/31 00:21:24;;;;;;;2.50;2.00;;;19.30;99.90;;;;;;5073996;28;20274;-57
2022/07/31 00:23:53;;;;;;;2.30;2.13;;;19.30;99.90;;;;;;5055890;28;20303;-56
2022/07/31 00:26:21;;;;;;;2.40;2.30;;;19.20;99.90;;;;;;5067661;28;20192;-56
2022/07/31 00:28:50;;;;;;;2.03;1.90;;;19.20;99.90;;;;;;5073468;28;20644;-56
2022/07/31 00:31:18;;;;;;;2.47;2.33;;;19.10;99.90;;;;;;5062989;28;20599;-56
2022/07/31 00:33:46;;;;;;;3.57;2.43;;;19.10;99.90;;;;;;5052500;28;20185;-56
2022/07/31 00:36:15;;;;;;;3.23;2.10;;;19.00;99.90;;;;;;5067254;28;20222;-56
2022/07/31 00:38:44;;;;;;;2.50;2.33;;;18.90;99.90;;;;;;5073833;28;20614;-56
2022/07/31 00:41:13;;;;;;;2.33;2.20;;;18.90;99.90;;;;;;5074133;28;20188;-56
2022/07/31 00:43:41;;;;;;;3.27;2.40;;;18.80;99.90;;;;;;5073463;28;20222;-56
2022/07/31 00:46:09;;;;;;;2.40;2.20;;;18.80;99.90;;;;;;5073915;28;20279;-56
2022/07/31 00:48:41;;;;;;;2.23;2.13;;;18.70;99.90;;;;;;5073247;28;20200;-56
2022/07/31 00:51:11;;;;;;;2.60;2.40;;;18.80;99.90;;;;;;5073569;28;20195;-56
2022/07/31 00:53:39;;;;;;;3.70;2.30;;;18.70;99.90;;;;;;5093464;28;20192;-60
2022/07/31 00:56:09;;;;;;;2.67;2.47;;;18.70;99.90;;;;;;5082219;28;20202;-56
2022/07/31 00:58:37;;;;;;;3.50;2.30;;;18.70;99.90;;;;;;5073421;28;20198;-57
2022/07/31 01:01:47;;;;;;;2.40;2.17;;;18.70;99.90;;;;;;5072994;28;20726;-57
2022/07/31 01:04:18;;;;;;;2.50;2.30;;;18.70;99.90;;;;;;5088956;28;20284;-56
2022/07/31 01:06:48;;;;;;;4.83;2.53;;;18.60;99.90;;;;;;5057148;28;20634;-57
2022/07/31 01:09:17;;;;;;;2.57;2.40;;;18.60;99.90;;;;;;5072199;28;20182;-57
2022/07/31 01:11:51;;;;;;;3.90;2.40;;;18.60;99.90;;;;;;5072022;28;20291;-56
2022/07/31 01:14:24;;;;;;;2.73;2.53;;;18.50;99.90;;;;;;5073315;28;20584;-57
2022/07/31 01:16:55;;;;;;;2.40;2.20;;;18.50;99.90;;;;;;5072067;28;20192;-57
2022/07/31 01:19:28;;;;;;;2.97;2.77;;;18.40;99.90;;;;;;5073279;28;20263;-56
2022/07/31 01:22:20;;;;;;;2.50;2.40;;;18.30;99.90;;;;;;5070116;28;20532;-57
2022/07/31 01:25:09;;;;;;;2.80;2.70;;;18.30;99.90;;;;;;5073132;28;20261;-57
2022/07/31 01:27:58;;;;;;;2.60;2.50;;;18.30;99.90;;;;;;5073322;28;20195;-57
2022/07/31 01:30:32;;;;;;;3.03;2.77;;;18.30;99.90;;;;;;5073425;28;20184;-56
2022/07/31 01:33:07;;;;;;;2.97;2.77;;;18.30;99.90;;;;;;5073229;28;20666;-56
2022/07/31 01:35:40;;;;;;;2.63;2.53;;;18.30;99.90;;;;;;5073271;28;20172;-56
2022/07/31 01:38:12;;;;;;;2.70;2.50;;;18.30;99.90;;;;;;5067768;28;20299;-57
2022/07/31 01:40:45;;;;;;;3.40;2.40;;;18.20;99.90;;;;;;5072885;28;20219;-57
2022/07/31 01:43:17;;;;;;;2.87;2.53;;;18.20;99.90;;;;;;5072839;28;20302;-57
2022/07/31 01:45:50;;;;;;;2.70;2.60;;;18.20;99.90;;;;;;5072760;28;20276;-57
2022/07/31 01:48:19;;;;;;;3.90;2.40;;;18.10;99.90;;;;;;5064379;28;20224;-56
2022/07/31 01:50:51;;;;;;;2.33;2.23;;;18.10;99.90;;;;;;5056809;28;20199;-57
2022/07/31 01:53:21;;;;;;;2.97;2.77;;;18.10;99.90;;;;;;5053042;28;20248;-56
2022/07/31 01:55:52;;;;;;;4.33;3.00;;;18.00;99.90;;;;;;5052942;28;20271;-57
2022/07/31 01:58:34;;;;;;;3.00;2.80;;;18.00;99.90;;;;;;5053303;28;20197;-57
2022/07/31 02:01:07;;;;;;;2.60;2.50;;;18.00;99.90;;;;;;5052613;28;20197;-57
2022/07/31 02:03:39;;;;;;;3.37;3.00;;;18.00;99.90;;;;;;5063177;28;20211;-57
2022/07/31 02:06:14;;;;;;;3.03;2.80;;;18.00;99.90;;;;;;5072882;28;20192;-57
2022/07/31 02:08:45;;;;;;;2.87;2.77;;;18.00;99.90;;;;;;5067073;28;20244;-57
2022/07/31 02:11:15;;;;;;;3.53;3.07;;;18.00;99.90;;;;;;5052859;28;20286;-56
2022/07/31 02:13:45;;;;;;;3.13;2.90;;;18.00;99.90;;;;;;5074250;28;20643;-56
2022/07/31 02:16:16;;;;;;;3.17;2.97;;;18.00;99.90;;;;;;5061189;28;20657;-56
2022/07/31 02:18:46;;;;;;;2.90;2.80;;;18.00;99.90;;;;;;5056562;28;20235;-56
2022/07/31 02:21:14;;;;;;;7.73;3.50;;;18.00;99.90;;;;;;5071807;28;20193;-56
2022/07/31 02:23:43;;;;;;;3.47;2.80;;;18.00;99.90;;;;;;5075820;28;20290;-56
2022/07/31 02:26:13;;;;;;;4.73;3.53;;;18.00;99.90;;;;;;5075923;28;20528;-57
2022/07/31 02:28:43;;;;;;;2.97;2.80;;;18.00;99.90;;;;;;5076146;28;20666;-57
2022/07/31 02:31:15;;;;;;;4.07;3.40;;;18.00;99.90;;;;;;5075088;28;20200;-56
2022/07/31 02:33:46;;;;;;;3.87;3.53;;;18.00;99.90;;;;;;5076280;28;20271;-56
2022/07/31 02:36:16;;;;;;;4.40;3.37;;;18.00;99.90;;;;;;5075670;28;20191;-57
2022/07/31 02:38:46;;;;;;;3.73;3.43;;;18.00;99.90;;;;;;5056317;28;20277;-57
2022/07/31 02:41:16;;;;;;;3.60;3.30;;;18.00;99.90;;;;;;5069154;28;20831;-56
2022/07/31 02:43:45;;;;;;;3.90;3.47;;;18.00;99.90;;;;;;5076041;28;20575;-57
2022/07/31 02:46:15;;;;;;;4.07;3.17;;;18.00;99.90;;;;;;5074728;28;20310;-56
2022/07/31 02:48:44;;;;;;;5.67;3.70;;;17.90;99.90;;;;;;5074255;28;20216;-57
2022/07/31 02:51:13;;;;;;;3.10;3.00;;;18.00;99.90;;;;;;5075973;28;20544;-56
2022/07/31 02:53:42;;;;;;;5.03;3.30;;;17.90;99.90;;;;;;5076021;28;20234;-57
2022/07/31 02:56:11;;;;;;;3.87;3.57;;;18.00;99.90;;;;;;5059691;28;20192;-56
2022/07/31 02:58:40;;;;;;;3.67;3.47;;;18.00;99.90;;;;;;5071150;28;20198;-58
2022/07/31 03:01:09;;;;;;;5.90;3.43;;;17.90;99.90;;;;;;5055739;28;20276;-56
2022/07/31 03:03:39;;;;;;;3.40;3.20;;;18.00;99.90;;;;;;5055389;28;20195;-56
2022/07/31 03:06:10;;;;;;;3.47;3.20;;;18.00;99.90;;;;;;5074973;28;20290;-57
2022/07/31 03:08:39;;;;;;;3.77;3.20;;;17.90;99.90;;;;;;5062576;28;20231;-57
2022/07/31 03:11:08;;;;;;;4.33;3.30;;;17.90;99.90;;;;;;5063670;28;20738;-57
2022/07/31 03:13:38;;;;;;;3.37;3.17;;;18.00;99.90;;;;;;5074012;28;20228;-57
2022/07/31 03:16:10;;;;;;;5.50;3.50;;;18.00;99.90;;;;;;5075240;28;20274;-57
2022/07/31 03:18:41;;;;;;;3.53;3.33;;;18.00;99.90;;;;;;5075247;28;20809;-57
2022/07/31 03:21:10;;;;;;;3.60;3.40;;;18.00;99.90;;;;;;5075121;28;20209;-56
2022/07/31 03:23:40;;;;;;;3.53;3.33;;;18.10;99.90;;;;;;5074851;28;20283;-57
2022/07/31 03:26:10;;;;;;;4.90;3.63;;;18.00;99.90;;;;;;5075239;28;20271;-57
2022/07/31 03:28:39;;;;;;;5.83;3.00;;;18.00;99.90;;;;;;5075014;28;20625;-57
2022/07/31 03:31:07;;;;;;;3.93;3.23;;;18.00;99.90;;;;;;5075026;28;20284;-57
2022/07/31 03:33:36;;;;;;;5.63;3.10;;;18.00;99.90;;;;;;5073480;28;20219;-57
2022/07/31 03:36:08;;;;;;;3.57;3.37;;;18.00;99.90;;;;;;5074978;28;20216;-57
2022/07/31 03:38:36;;;;;;;4.30;3.37;;;17.90;99.90;;;;;;5074901;28;20188;-56
2022/07/31 03:41:11;;;;;;;6.40;3.40;;;17.90;99.90;;;;;;5074947;28;20206;-57
2022/07/31 03:43:41;;;;;;;3.53;3.23;;;17.80;99.90;;;;;;5074822;28;20295;-57
2022/07/31 03:46:18;;;;;;;3.90;3.53;;;17.80;99.90;;;;;;5074651;28;20261;-57
2022/07/31 03:48:50;;;;;;;3.23;3.10;;;17.80;99.90;;;;;;5074528;28;20192;-57
2022/07/31 03:51:22;;;;;;;3.70;3.23;;;17.80;99.90;;;;;;5074830;28;20196;-57
2022/07/31 03:53:51;;;;;;;3.50;3.30;;;17.80;99.90;;;;;;5074466;28;20200;-57
2022/07/31 03:56:20;;;;;;;5.00;3.30;;;17.80;99.90;;;;;;5074620;28;20192;-57
2022/07/31 03:58:48;;;;;;;3.93;3.00;;;17.70;99.90;;;;;;5074380;28;20260;-57
2022/07/31 04:01:20;;;;;;;3.47;3.17;;;17.80;99.90;;;;;;5074487;28;20200;-58
2022/07/31 04:03:57;;;;;;;4.93;3.10;;;17.80;99.90;;;;;;5054689;28;20629;-56
2022/07/31 04:06:28;;;;;;;5.77;3.40;;;17.80;99.90;;;;;;5053231;28;20191;-58
2022/07/31 04:08:56;;;;;;;5.37;3.10;;;17.80;99.90;;;;;;5052828;28;20281;-57
2022/07/31 04:11:24;;;;;;;5.80;3.20;;;17.80;99.90;;;;;;5053096;28;20287;-57
2022/07/31 04:13:53;;;;;;;4.40;3.50;;;17.80;99.90;;;;;;5053102;28;20690;-57
2022/07/31 04:16:21;;;;;;;5.93;3.87;;;17.80;99.90;;;;;;5056428;28;20668;-56
2022/07/31 04:18:52;;;;;;;3.53;3.33;;;17.80;99.90;;;;;;5074605;28;20287;-57
2022/07/31 04:21:21;;;;;;;3.80;3.50;;;17.80;99.90;;;;;;5073887;28;20221;-56
2022/07/31 04:23:53;;;;;;;6.20;3.27;;;17.80;99.90;;;;;;5072861;28;20867;-57
2022/07/31 04:26:22;;;;;;;4.97;3.40;;;17.90;99.90;;;;;;5073620;28;20235;-57
2022/07/31 04:28:53;;;;;;;3.70;3.40;;;17.90;99.90;;;;;;5060660;28;20254;-56
2022/07/31 04:31:22;;;;;;;5.33;3.47;;;17.90;99.90;;;;;;5053808;28;20192;-57
2022/07/31 04:33:51;;;;;;;3.83;3.57;;;17.90;99.90;;;;;;5054015;28;20192;-57
2022/07/31 04:36:24;;;;;;;3.63;3.30;;;17.90;99.90;;;;;;5054827;28;20606;-56
2022/07/31 04:38:59;;;;;;;3.63;3.43;;;17.90;99.90;;;;;;5074095;28;20565;-57
2022/07/31 04:41:27;;;;;;;3.93;3.63;;;17.90;99.90;;;;;;5073589;28;20273;-56
2022/07/31 04:43:57;;;;;;;4.20;3.90;;;17.90;99.90;;;;;;5073982;28;20281;-57
2022/07/31 04:46:26;;;;;;;6.87;4.27;;;17.90;99.90;;;;;;5073240;28;20307;-57
2022/07/31 04:48:54;;;;;;;4.00;3.70;;;18.00;99.90;;;;;;5073902;28;20196;-57
2022/07/31 04:51:24;;;;;;;3.90;3.63;;;18.00;99.90;;;;;;5071922;28;20188;-57
2022/07/31 04:53:52;;;;;;;5.67;3.80;;;18.00;99.90;;;;;;5053504;28;20272;-57
2022/07/31 04:56:34;;;;;;;5.50;4.03;;;18.00;99.90;;;;;;5057463;28;20263;-56
2022/07/31 04:59:05;;;;;;;4.00;3.70;;;18.10;99.90;;;;;;5073307;28;20279;-58
2022/07/31 05:01:34;;;;;;;3.93;3.60;;;18.10;99.90;;;;;;5073417;28;20271;-57
2022/07/31 05:04:02;;;;;;;4.93;4.47;;;18.10;99.90;;;;;;5072414;28;20675;-57
2022/07/31 05:06:35;;;;;;;5.63;4.03;;;18.10;99.90;;;;;;5073313;28;20294;-57
2022/07/31 05:09:05;;;;;;;6.03;4.17;;;18.10;99.90;;;;;;5073059;28;20683;-57
2022/07/31 05:11:40;;;;;;;4.63;4.23;;;18.10;99.90;;;;;;5107708;28;20187;-57
2022/07/31 05:14:10;;;;;;;4.70;3.97;;;18.20;99.90;;;;;;5093545;28;20195;-57
2022/07/31 05:16:39;;;;;;;5.50;4.17;;;18.20;99.90;;;;;;5092489;28;20187;-56
2022/07/31 05:19:07;;;;;;;7.07;4.47;;;18.20;99.90;;;;;;5068974;28;20196;-57
2022/07/31 05:21:43;;;;;;;4.27;3.80;;;18.20;99.90;;;;;;5063493;28;20234;-57
2022/07/31 05:24:21;;;;;;;4.83;4.27;;;18.20;99.90;;;;;;5072047;28;20203;-56
2022/07/31 05:27:02;;;;;;;6.07;4.27;;;18.40;99.90;;;;;;5105763;28;20674;-57
2022/07/31 05:29:31;;;;;;;4.90;4.40;;;18.40;99.90;;;;;;5073338;28;20300;-56
2022/07/31 05:31:59;;;;;;;6.27;4.93;;;18.40;99.90;;;;;;5067253;28;20266;-57
2022/07/31 05:34:29;;;;;;;5.70;4.50;;;18.50;99.90;;;;;;5072911;28;20262;-57
2022/07/31 05:36:59;;;;;;;5.40;4.17;;;18.60;99.90;;;;;;5072114;28;20295;-56
2022/07/31 05:39:29;;;;;;;9.57;4.53;;;18.80;99.90;;;;;;5065348;28;20220;-57
2022/07/31 05:41:57;;;;;;;6.07;4.80;;;19.10;99.90;;;;;;5073588;28;20211;-56
2022/07/31 05:44:27;;;;;;;5.23;4.73;;;19.20;99.90;;;;;;5075772;28;20284;-56
2022/07/31 05:46:58;;;;;;;5.10;4.30;;;19.20;99.90;;;;;;5073815;28;20667;-57
2022/07/31 05:49:27;;;;;;;6.40;4.40;;;19.20;99.90;;;;;;5076752;28;20239;-57
2022/07/31 05:51:56;;;;;;;5.87;4.00;;;19.30;99.90;;;;;;5076752;28;20195;-57
2022/07/31 05:54:24;;;;;;;4.83;4.50;;;19.30;99.90;;;;;;5076598;28;20227;-56
2022/07/31 05:56:53;;;;;;;4.80;4.37;;;19.40;99.90;;;;;;5056851;28;20704;-58
2022/07/31 05:59:21;;;;;;;6.37;4.10;;;19.40;99.90;;;;;;5073537;28;20682;-56
2022/07/31 06:01:51;;;;;;;5.30;4.70;;;19.50;99.90;;;;;;5056310;28;20541;-57
2022/07/31 06:04:19;;;;;;;5.07;4.47;;;19.50;99.90;;;;;;5072264;28;20197;-57
2022/07/31 06:06:48;;;;;;;4.97;4.30;;;19.60;99.90;;;;;;5056670;28;20227;-57
2022/07/31 06:09:16;;;;;;;5.90;4.50;;;19.70;99.90;;;;;;5072563;28;20591;-57
2022/07/31 06:11:44;;;;;;;5.37;4.50;;;19.80;99.90;;;;;;5076438;28;20231;-56
2022/07/31 06:14:12;;;;;;;7.87;4.77;;;19.80;99.90;;;;;;5102516;28;20264;-56
2022/07/31 06:16:41;;;;;;;5.53;4.70;;;19.80;99.90;;;;;;5076316;28;20220;-56
2022/07/31 06:19:11;;;;;;;6.73;4.70;;;19.90;99.90;;;;;;5076785;28;20586;-56
2022/07/31 06:21:39;;;;;;;6.37;4.83;;;20.00;99.90;;;;;;5076450;28;20654;-57
2022/07/31 06:24:08;;;;;;;6.97;4.80;;;20.00;99.90;;;;;;5068822;28;20645;-56
2022/07/31 06:26:36;;;;;;;6.70;4.77;;;20.00;99.90;;;;;;5061306;28;20232;-58
2022/07/31 06:29:06;;;;;;;6.90;4.50;;;20.00;99.90;;;;;;5076188;28;20191;-56
2022/07/31 06:31:34;;;;;;;6.20;4.87;;;20.10;99.90;;;;;;5076011;28;20192;-56
2022/07/31 06:34:05;;;;;;;6.70;5.03;;;20.20;99.90;;;;;;5076008;28;20183;-56
2022/07/31 06:36:37;;;;;;;7.13;4.60;;;20.10;99.90;;;;;;5076207;28;20247;-56
2022/07/31 06:39:06;;;;;;;5.20;4.80;;;20.20;99.90;;;;;;5076114;28;20190;-56
2022/07/31 06:41:47;;;;;;;5.00;4.60;;;20.20;99.90;;;;;;5074224;28;20196;-56
2022/07/31 06:44:18;;;;;;;5.07;4.53;;;20.30;99.90;;;;;;5075521;28;20200;-57
2022/07/31 06:46:46;;;;;;;7.97;4.90;;;20.30;99.90;;;;;;5075409;28;20208;-57
2022/07/31 06:49:16;;;;;;;5.80;4.80;;;20.30;99.90;;;;;;5075524;28;20207;-57
2022/07/31 06:51:46;;;;;;;10.07;4.70;;;20.20;99.90;;;;;;5066193;28;20189;-56
2022/07/31 06:54:15;;;;;;;5.37;4.87;;;20.10;99.90;;;;;;5055630;28;20276;-57
2022/07/31 06:56:44;;;;;;;6.03;4.80;;;20.20;99.90;;;;;;5057061;28;20291;-57
2022/07/31 06:59:12;;;;;;;5.53;4.50;;;20.40;99.90;;;;;;5074933;28;20227;-56
2022/07/31 07:02:01;;;;;;;5.17;4.30;;;20.90;99.90;;;;;;5075217;28;20212;-56
2022/07/31 07:04:31;;;;;;;6.17;4.20;;;21.10;99.90;;;;;;5075380;28;20192;-57
2022/07/31 07:07:20;;;;;;;4.10;3.77;;;21.40;99.90;;;;;;5075046;28;20254;-56
2022/07/31 07:09:49;;;;;;;5.67;4.10;;;21.60;99.90;;;;;;5072814;28;20254;-57
2022/07/31 07:12:17;;;;;;;6.03;4.53;;;21.70;99.90;;;;;;5075459;28;20271;-56
2022/07/31 07:14:45;;;;;;;7.00;4.30;;;21.50;99.90;;;;;;5074061;28;20641;-57
2022/07/31 07:17:13;;;;;;;4.43;3.87;;;21.30;99.90;;;;;;5075021;28;20216;-57
2022/07/31 07:19:42;;;;;;;6.43;4.33;;;21.40;99.90;;;;;;5071552;28;20609;-57
2022/07/31 07:22:10;;;;;;;5.90;4.30;;;21.70;99.90;;;;;;5066472;28;20246;-57
2022/07/31 07:24:40;;;;;;;4.13;3.63;;;21.90;99.90;;;;;;5075262;28;20192;-57
2022/07/31 07:27:08;;;;;;;9.93;3.80;;;22.20;99.90;;;;;;5074890;28;20707;-57
2022/07/31 07:29:36;;;;;;;4.90;3.63;;;22.60;99.90;;;;;;5074965;28;20689;-57
2022/07/31 07:32:05;;;;;;;4.03;3.67;;;22.80;99.90;;;;;;5074603;28;20275;-57
2022/07/31 07:34:34;;;;;;;4.17;3.40;;;23.00;99.90;;;;;;5073691;28;20229;-56
2022/07/31 07:37:02;;;;;;;4.77;3.70;;;23.30;99.90;;;;;;5074756;28;20213;-58
2022/07/31 07:39:32;;;;;;;4.43;3.77;;;23.40;99.90;;;;;;5074832;28;20205;-57
2022/07/31 07:42:01;;;;;;;5.93;3.47;;;23.30;99.90;;;;;;5070238;28;20645;-58
2022/07/31 07:44:30;;;;;;;3.87;3.40;;;24.10;99.90;;;;;;5093883;28;20202;-57
2022/07/31 07:46:58;;;;;;;3.40;3.20;;;24.20;99.90;;;;;;5094084;28;20290;-57
2022/07/31 07:49:27;;;;;;;5.67;2.93;;;24.20;99.90;;;;;;5074629;28;20192;-56
2022/07/31 07:51:56;;;;;;;4.37;3.83;;;24.20;99.90;;;;;;5070114;28;20683;-56
2022/07/31 07:54:28;;;;;;;7.10;3.27;;;24.00;99.90;;;;;;5072577;28;20254;-58
2022/07/31 07:56:57;;;;;;;4.00;3.57;;;23.80;99.90;;;;;;5074616;28;20643;-58
2022/07/31 07:59:26;;;;;;;6.67;3.67;;;23.70;99.90;;;;;;5069445;28;20275;-57
2022/07/31 08:01:55;;;;;;;3.87;3.57;;;23.70;99.90;;;;;;5073032;28;20637;-57
2022/07/31 08:04:23;;;;;;;4.00;3.50;;;23.80;99.90;;;;;;5073296;28;20200;-57
2022/07/31 08:06:51;;;;;;;3.33;3.13;;;23.80;99.90;;;;;;5075910;28;20654;-57
2022/07/31 08:09:21;;;;;;;3.93;3.47;;;24.10;99.90;;;;;;5066632;28;20216;-57
2022/07/31 08:11:50;;;;;;;4.10;3.80;;;24.50;99.90;;;;;;5072923;28;20200;-57
2022/07/31 08:14:18;;;;;;;5.40;3.70;;;24.40;99.90;;;;;;5073987;28;20279;-57
2022/07/31 08:20:18;;;;;;;3.77;3.43;;;25.50;99.90;;;;;;5054041;28;20196;-57
2022/07/31 08:22:46;;;;;;;4.23;3.70;;;25.20;99.90;;;;;;5057819;28;20265;-57
2022/07/31 08:25:15;;;;;;;3.60;3.40;;;25.00;99.90;;;;;;5073779;28;20219;-58
2022/07/31 08:27:43;;;;;;;3.67;3.37;;;25.00;99.90;;;;;;5073890;28;20299;-57
2022/07/31 08:30:15;;;;;;;3.70;3.40;;;25.00;99.90;;;;;;5073672;28;20196;-57
2022/07/31 08:32:43;;;;;;;6.25;3.60;;;25.00;99.90;;;;;;5056958;28;20208;-58
2022/07/31 08:35:12;;;;;;;4.72;3.13;;;24.90;99.90;;;;;;5067170;28;20211;-57
2022/07/31 08:37:42;;;;;;;5.40;3.30;;;25.20;99.90;;;;;;5072219;28;20546;-58
2022/07/31 08:40:31;;;;;;;3.17;2.97;;;26.00;99.90;;;;;;5073816;28;20245;-58
2022/07/31 08:43:02;;;;;;;3.88;3.45;;;26.80;99.90;;;;;;5073385;28;20259;-57
2022/07/31 08:45:48;;;;;;;6.28;3.80;;;26.50;99.90;;;;;;5073527;28;20229;-58
2022/07/31 08:48:17;;;;;;;4.35;3.95;;;25.80;99.90;;;;;;5073454;28;20211;-57
2022/07/31 08:50:46;;;;;;;3.73;3.43;;;24.90;99.90;;;;;;5071593;28;20229;-57
2022/07/31 08:53:23;;;;;;;4.60;4.03;;;24.80;99.90;;;;;;5073118;28;20198;-57
2022/07/31 08:55:52;;;;;;;3.50;3.20;;;24.70;99.90;;;;;;5073424;28;20295;-58
2022/07/31 08:58:24;;;;;;;4.30;3.90;;;25.00;99.90;;;;;;5073305;28;20269;-57
2022/07/31 09:00:53;;;;;;;4.10;3.80;;;25.50;99.90;;;;;;5105990;28;20246;-58
2022/07/31 09:03:21;;;;;;;3.63;3.30;;;26.70;99.90;;;;;;5073318;28;20275;-58
2022/07/31 09:05:50;;;;;;;4.07;3.50;;;26.60;99.90;;;;;;5073200;28;20198;-58
2022/07/31 09:08:18;;;;;;;4.07;3.73;;;26.30;99.90;;;;;;5072752;28;20234;-57
2022/07/31 09:10:48;;;;;;;5.43;3.40;;;25.80;99.90;;;;;;5100068;28;20666;-58
2022/07/31 09:13:19;;;;;;;4.30;3.90;;;25.20;99.90;;;;;;5053199;28;20185;-58
2022/07/31 09:15:49;;;;;;;3.83;3.47;;;25.10;99.90;;;;;;5053216;28;20195;-57
2022/07/31 09:18:20;;;;;;;4.30;3.90;;;25.00;99.90;;;;;;5058847;28;20212;-58
2022/07/31 09:20:59;;;;;;;4.20;3.80;;;25.00;99.90;;;;;;5072029;28;20521;-58
2022/07/31 09:23:30;;;;;;;7.20;3.90;;;25.30;99.90;;;;;;5079153;28;20200;-57
2022/07/31 09:26:03;;;;;;;4.10;3.80;;;25.20;99.90;;;;;;5079692;28;20532;-57
2022/07/31 09:28:34;;;;;;;4.10;3.80;;;25.30;99.90;;;;;;5090867;28;20590;-57
2022/07/31 09:31:03;;;;;;;4.57;3.60;;;25.40;99.90;;;;;;5099109;28;20206;-57
2022/07/31 09:33:32;;;;;;;5.80;3.90;;;25.60;99.90;;;;;;5098794;28;20290;-58
2022/07/31 09:36:01;;;;;;;4.10;3.63;;;25.60;99.90;;;;;;5080245;28;20220;-57
2022/07/31 09:38:32;;;;;;;3.83;3.60;;;25.40;99.90;;;;;;5087209;28;20237;-57
2022/07/31 09:41:12;;;;;;;3.90;3.67;;;25.30;99.90;;;;;;5097302;28;20223;-58
2022/07/31 09:44:02;;;;;;;5.70;3.80;;;24.80;99.90;;;;;;5079295;28;20291;-57
2022/07/31 09:46:41;;;;;;;4.13;3.73;;;24.40;99.90;;;;;;5079834;28;20207;-57
2022/07/31 09:49:10;;;;;;;4.10;3.77;;;24.30;99.90;;;;;;5083727;28;20298;-57
2022/07/31 09:51:39;;;;;;;5.07;4.10;;;24.10;99.90;;;;;;5100254;28;20184;-57
2022/07/31 09:54:08;;;;;;;6.50;3.90;;;24.00;99.90;;;;;;5080653;28;20228;-57
2022/07/31 09:56:37;;;;;;;4.10;3.70;;;23.90;99.90;;;;;;5078226;28;20662;-58
2022/07/31 09:59:07;;;;;;;3.50;3.30;;;23.90;99.90;;;;;;5075246;28;20265;-58
2022/07/31 10:01:40;;;;;;;6.80;4.00;;;23.90;99.90;;;;;;5079406;28;20246;-58
2022/07/31 10:04:25;;;;;;;3.53;3.30;;;23.90;99.90;;;;;;5078350;28;20596;-57
2022/07/31 10:06:56;;;;;;;5.30;4.03;;;24.10;99.90;;;;;;5073738;28;20195;-57
2022/07/31 10:09:27;;;;;;;7.00;3.57;;;24.50;99.90;;;;;;5078635;28;20221;-57
2022/07/31 10:12:00;;;;;;;3.97;3.67;;;24.60;99.90;;;;;;5078083;28;20198;-58
2022/07/31 10:14:31;;;;;;;3.30;3.10;;;24.80;99.90;;;;;;5079282;28;20271;-57
2022/07/31 10:17:03;;;;;;;5.13;3.67;;;24.90;99.90;;;;;;5060940;28;20203;-57
2022/07/31 10:19:36;;;;;;;3.23;3.03;;;24.70;99.90;;;;;;5059276;28;20198;-57
2022/07/31 10:22:06;;;;;;;6.73;3.47;;;25.10;99.90;;;;;;5059540;28;20212;-58
2022/07/31 10:24:40;;;;;;;3.30;2.80;;;25.60;99.90;;;;;;5079580;28;20200;-59
2022/07/31 10:27:11;;;;;;;3.13;2.93;;;26.00;99.90;;;;;;5079301;28;20192;-59
2022/07/31 10:29:40;;;;;;;2.90;2.23;;;26.30;99.90;;;;;;5071260;28;20633;-57
2022/07/31 10:32:09;;;;;;;3.53;2.00;;;26.40;99.90;;;;;;5079250;28;20275;-57
2022/07/31 10:34:38;;;;;;;2.43;2.00;;;26.70;99.90;;;;;;5075628;28;20192;-58
2022/07/31 10:37:13;;;;;;;4.63;2.40;;;26.60;99.90;;;;;;5074838;28;20220;-58
2022/07/31 10:39:49;;;;;;;2.47;2.27;;;26.40;99.90;;;;;;5098654;28;20278;-57
2022/07/31 10:42:31;;;;;;;2.80;2.53;;;26.20;99.90;;;;;;5076154;28;20282;-58
2022/07/31 10:45:05;;;;;;;2.80;2.30;;;25.80;99.90;;;;;;5075629;28;20188;-58
2022/07/31 10:47:33;;;;;;;2.67;2.57;;;25.50;99.90;;;;;;5074762;28;20246;-58
2022/07/31 10:50:02;;;;;;;2.67;2.57;;;25.40;99.90;;;;;;5074390;28;20612;-58
2022/07/31 10:52:32;;;;;;;2.03;1.93;;;25.60;99.90;;;;;;5066418;28;20196;-58
2022/07/31 10:55:04;;;;;;;2.60;2.17;;;25.50;99.90;;;;;;5093076;28;20282;-58
2022/07/31 10:57:34;;;;;;;2.27;2.10;;;26.40;99.90;;;;;;5076777;28;20223;-58
2022/07/31 11:00:27;;;;;;;2.50;2.00;;;26.50;99.90;;;;;;5088105;28;20193;-58
2022/07/31 11:02:57;;;;;;;3.57;2.00;;;26.50;99.90;;;;;;5055367;28;20638;-58
2022/07/31 11:05:26;;;;;;;2.23;2.00;;;26.60;99.90;;;;;;5055838;28;20193;-59
2022/07/31 11:08:02;;;;;;;2.03;1.93;;;26.80;99.90;;;;;;5066445;28;20239;-58
2022/07/31 11:10:32;;;;;;;1.97;1.87;;;26.60;99.90;;;;;;5088523;28;20266;-58
2022/07/31 11:13:04;;;;;;;3.30;1.90;;;26.50;99.90;;;;;;5083922;28;20196;-57
2022/07/31 11:15:33;;;;;;;2.20;1.73;;;26.90;99.90;;;;;;5075400;28;20193;-58
2022/07/31 11:18:11;;;;;;;3.38;1.70;;;27.10;99.90;;;;;;5073967;28;20198;-58
2022/07/31 11:20:59;;;;;;;2.00;1.93;;;27.20;99.90;;;;;;5075444;28;20659;-57
2022/07/31 11:23:44;;;;;;;2.30;1.67;;;27.10;99.90;;;;;;5073673;28;20204;-57
2022/07/31 11:26:31;;;;;;;2.73;1.80;;;27.20;99.90;;;;;;5074102;28;20560;-58
2022/07/31 11:29:10;;;;;;;2.20;2.00;;;27.00;99.90;;;;;;5074868;28;20215;-57
2022/07/31 11:32:13;;;;;;;1.80;1.70;;;26.90;99.90;;;;;;5074922;28;20255;-57
2022/07/31 11:34:46;;;;;;;2.57;1.70;;;27.10;99.90;;;;;;5054869;28;20277;-57
2022/07/31 11:37:19;;;;;;;1.77;1.63;;;27.30;99.90;;;;;;5055182;28;20315;-58
2022/07/31 11:39:48;;;;;;;5.83;1.83;;;27.30;99.90;;;;;;5064070;28;20200;-59
2022/07/31 11:42:21;;;;;;;2.20;1.40;;;27.10;99.90;;;;;;5074766;28;20279;-58
2022/07/31 11:45:02;;;;;;;2.33;1.40;;;26.80;99.90;;;;;;5074652;28;20194;-58
2022/07/31 11:47:40;;;;;;;3.80;1.47;;;26.50;99.90;;;;;;5055211;28;20231;-58
2022/07/31 11:50:31;;;;;;;1.70;1.60;;;26.30;99.90;;;;;;5046472;28;20278;-57
2022/07/31 11:53:03;;;;;;;1.20;1.20;;;26.40;99.90;;;;;;5067610;28;20207;-57
2022/07/31 11:55:32;;;;;;;1.40;1.30;;;26.40;99.90;;;;;;5066667;28;20189;-57
2022/07/31 11:58:00;;;;;;;3.00;1.50;;;26.50;99.90;;;;;;5054433;28;20189;-57
2022/07/31 12:00:30;;;;;;;1.83;1.60;;;26.40;99.90;;;;;;5065277;28;20551;-57
2022/07/31 12:02:58;;;;;;;1.60;1.50;;;26.40;99.90;;;;;;5067187;28;20200;-58
2022/07/31 12:05:26;;;;;;;1.40;1.30;;;26.40;99.90;;;;;;5070861;28;20230;-57
2022/07/31 12:08:06;;;;;;;3.67;1.70;;;26.20;99.90;;;;;;5054338;28;20236;-58
2022/07/31 12:10:35;;;;;;;1.30;1.30;;;26.30;99.90;;;;;;5065061;28;20253;-58
2022/07/31 12:13:03;;;;;;;1.57;1.30;;;26.70;99.90;;;;;;5072826;28;20212;-57
2022/07/31 12:15:33;;;;;;;1.13;1.13;;;27.30;99.90;;;;;;5060393;28;20237;-58
2022/07/31 12:18:03;;;;;;;1.50;1.40;;;27.70;99.90;;;;;;5076616;28;20218;-57
2022/07/31 12:20:34;;;;;;;1.30;1.30;;;27.80;99.90;;;;;;5074273;28;20193;-57
2022/07/31 12:23:05;;;;;;;2.13;1.23;;;27.40;99.90;;;;;;5073360;28;20212;-57
2022/07/31 12:25:54;;;;;;;1.57;1.47;;;27.00;99.90;;;;;;5071954;28;20196;-57
2022/07/31 12:28:22;;;;;;;1.47;1.37;;;26.70;99.90;;;;;;5073456;28;20222;-57
2022/07/31 12:31:00;;;;;;;1.33;1.23;;;26.60;99.90;;;;;;5073656;28;20208;-58
2022/07/31 12:33:28;;;;;;;1.43;1.30;;;26.50;99.90;;;;;;5092525;28;20595;-57
2022/07/31 12:35:56;;;;;;;1.70;1.43;;;26.40;99.90;;;;;;5071461;28;20283;-58
2022/07/31 12:38:26;;;;;;;1.20;1.20;;;26.50;99.90;;;;;;5065496;28;21906;-57
2022/07/31 12:41:15;;;;;;;1.20;1.20;;;26.40;99.90;;;;;;5062714;28;20201;-57
2022/07/31 12:43:43;;;;;;;1.83;1.37;;;26.40;99.90;;;;;;5068287;28;20271;-57
2022/07/31 12:46:22;;;;;;;4.23;1.50;;;26.20;99.90;;;;;;5070038;28;20243;-58
2022/07/31 12:48:50;;;;;;;1.40;1.40;;;26.40;99.90;;;;;;5059193;28;20649;-58
2022/07/31 12:51:19;;;;;;;1.40;1.30;;;26.30;99.90;;;;;;5059966;28;20225;-57
2022/07/31 12:54:09;;;;;;;2.57;1.40;;;26.20;99.90;;;;;;5069581;28;20218;-57
2022/07/31 12:56:39;;;;;;;1.40;1.40;;;26.20;99.90;;;;;;5073144;28;20525;-57
2022/07/31 12:59:08;;;;;;;1.60;1.50;;;25.90;99.90;;;;;;5073294;28;20188;-57
2022/07/31 13:01:38;;;;;;;2.30;1.50;;;25.90;99.90;;;;;;5081880;28;20202;-57
2022/07/31 13:04:08;;;;;;;1.50;1.50;;;25.90;99.90;;;;;;5070972;28;20223;-57
2022/07/31 13:06:49;;;;;;;1.60;1.60;;;25.90;99.90;;;;;;5067659;28;20590;-57
2022/07/31 13:09:19;;;;;;;3.30;1.63;;;26.00;99.90;;;;;;5073121;28;20610;-58
2022/07/31 13:11:49;;;;;;;1.50;1.40;;;26.00;99.90;;;;;;5071650;28;20648;-57
2022/07/31 13:14:23;;;;;;;1.30;1.30;;;26.00;99.90;;;;;;5073467;28;20191;-57